Time;durP1;ratioP1;P1;durP2;ratioP2;P2;SDS_P1;SDS_P2;PMS_P1;PMS_P2;Temp;Humidity;BMP_temperature;BMP_pressure;BME280_temperature;BME280_humidity;BME280_pressure;Samples;Min_cycle;Max_cycle;Signal;HPM_P1;HPM_P2
2022/03/22 00:01:35;;;;;;;57.50;34.70;;;;;;;6.55;41.26;102708.48;106081;1274;22564;-70
2022/03/22 00:04:02;;;;;;;56.60;33.90;;;;;;;6.51;41.39;102711.98;106101;1277;22709;-72
2022/03/22 00:06:30;;;;;;;57.00;34.50;;;;;;;6.46;41.37;102710.36;105487;1281;23079;-71
2022/03/22 00:08:56;;;;;;;64.90;33.60;;;;;;;6.42;41.51;102706.52;105550;1281;24332;-77
2022/03/22 00:11:22;;;;;;;57.50;34.10;;;;;;;6.35;41.72;102705.66;105262;1281;24290;-74
2022/03/22 00:13:48;;;;;;;60.30;34.20;;;;;;;6.28;41.74;102698.36;105206;1282;22582;-75
2022/03/22 00:16:15;;;;;;;63.20;34.10;;;;;;;6.26;41.99;102703.52;105457;1281;22661;-75
2022/03/22 00:19:01;;;;;;;56.50;33.60;;;;;;;6.22;42.17;102705.12;105289;1282;22563;-73
2022/03/22 00:21:27;;;;;;;62.30;34.30;;;;;;;6.14;42.20;102703.83;105346;1281;25506;-72
2022/03/22 00:23:54;;;;;;;75.70;35.80;;;;;;;6.06;42.38;102705.41;105216;1277;22551;-70
2022/03/22 00:26:20;;;;;;;64.90;35.30;;;;;;;5.97;42.63;102703.02;105803;1277;22976;-70
2022/03/22 00:28:47;;;;;;;59.70;33.30;;;;;;;5.89;42.74;102703.20;105800;1276;22552;-72
2022/03/22 00:31:13;;;;;;;58.30;33.50;;;;;;;5.87;42.93;102703.26;105832;1274;22543;-71
2022/03/22 00:33:39;;;;;;;59.40;35.30;;;;;;;5.91;43.02;102704.48;105809;1276;25603;-72
2022/03/22 00:36:05;;;;;;;60.40;35.10;;;;;;;5.90;43.21;102699.91;105748;1274;22556;-70
2022/03/22 00:38:32;;;;;;;61.30;35.50;;;;;;;5.87;43.38;102696.77;105210;1282;22578;-70
2022/03/22 00:40:58;;;;;;;57.70;33.90;;;;;;;5.82;43.63;102701.11;105211;1281;23850;-76
2022/03/22 00:43:25;;;;;;;65.90;33.90;;;;;;;5.80;43.73;102698.77;105356;1281;24283;-72
2022/03/22 00:45:51;;;;;;;58.50;33.90;;;;;;;5.76;43.91;102698.39;105304;1281;25524;-72
2022/03/22 00:48:18;;;;;;;64.70;36.20;;;;;;;5.68;43.93;102695.91;105519;1281;25735;-73
2022/03/22 00:50:51;;;;;;;66.40;37.20;;;;;;;5.64;44.15;102695.20;105428;1281;22559;-73
2022/03/22 20:14:13;;;;;;;36.30;17.10;;;;;;;12.01;33.94;102250.61;102738;1309;545364;-77
2022/03/22 20:16:40;;;;;;;31.40;17.40;;;;;;;11.89;34.14;102244.79;104964;1287;24243;-80
2022/03/22 20:19:10;;;;;;;35.70;18.70;;;;;;;11.83;34.28;102249.29;105182;1284;25257;-76
2022/03/22 20:21:39;;;;;;;41.80;19.00;;;;;;;11.78;34.39;102245.16;105161;1284;25378;-76
2022/03/22 20:24:07;;;;;;;29.10;18.90;;;;;;;11.75;34.53;102247.58;105020;1287;22566;-77
2022/03/22 20:26:35;;;;;;;35.80;18.00;;;;;;;11.71;34.69;102248.73;105100;1284;22534;-75
2022/03/22 20:29:03;;;;;;;39.20;20.00;;;;;;;11.65;34.83;102248.31;106151;1271;377947;-76
2022/03/22 20:31:33;;;;;;;46.10;19.60;;;;;;;11.56;34.87;102246.40;106471;1271;25260;-76
2022/03/22 20:34:05;;;;;;;43.00;18.70;;;;;;;11.49;35.09;102242.55;105764;1277;22578;-76
2022/03/22 20:36:33;;;;;;;45.80;19.40;;;;;;;11.42;35.19;102240.16;105978;1276;23989;-74
2022/03/22 20:39:02;;;;;;;36.50;18.60;;;;;;;11.38;35.47;102239.75;106142;1275;24132;-75
2022/03/22 20:41:29;;;;;;;49.10;18.50;;;;;;;11.35;35.58;102239.16;106070;1274;22525;-74
2022/03/22 20:43:57;;;;;;;41.90;20.30;;;;;;;11.31;35.54;102237.34;105978;1279;25323;-76
2022/03/22 20:46:24;;;;;;;36.80;19.90;;;;;;;11.24;35.73;102234.57;105980;1278;22549;-75
2022/03/22 20:48:51;;;;;;;41.30;19.20;;;;;;;11.18;35.91;102237.63;106094;1276;22583;-76
2022/03/22 20:51:18;;;;;;;44.00;19.90;;;;;;;11.13;36.03;102239.13;106060;1272;22676;-77
2022/03/22 20:53:45;;;;;;;40.10;21.10;;;;;;;11.08;36.11;102237.10;106508;1271;22685;-82
2022/03/22 20:59:03;;;;;;;44.60;21.00;;;;;;;10.93;36.53;102233.83;106538;1271;22648;-75
2022/03/22 21:01:36;;;;;;;41.70;20.20;;;;;;;10.88;36.67;102239.71;106376;1271;24253;-79
2022/03/22 21:04:04;;;;;;;44.20;21.20;;;;;;;10.78;36.96;102231.07;106578;1271;25312;-77
2022/03/22 21:06:32;;;;;;;39.70;20.10;;;;;;;10.75;37.02;102238.23;106400;1271;24217;-76
2022/03/22 21:09:00;;;;;;;35.60;19.80;;;;;;;10.70;37.21;102235.66;106300;1271;22525;-78
2022/03/22 21:11:31;;;;;;;43.80;21.10;;;;;;;10.67;37.33;102236.48;105999;1275;25299;-77
2022/03/22 21:13:59;;;;;;;38.60;20.50;;;;;;;10.63;37.40;102234.65;106115;1274;25300;-74
2022/03/22 21:16:26;;;;;;;38.70;20.10;;;;;;;10.53;37.41;102233.05;106107;1276;22544;-73
2022/03/22 21:18:54;;;;;;;36.80;20.30;;;;;;;10.46;37.61;102231.12;106182;1274;22541;-75
2022/03/22 21:21:23;;;;;;;39.70;21.80;;;;;;;10.44;37.76;102231.76;106428;1274;22636;-74
2022/03/22 21:23:50;;;;;;;37.20;20.00;;;;;;;10.42;37.81;102228.02;105963;1280;22562;-80
2022/03/22 21:26:18;;;;;;;36.70;21.50;;;;;;;10.39;37.95;102225.33;105894;1282;24265;-74
2022/03/22 21:28:45;;;;;;;47.70;22.90;;;;;;;10.35;37.93;102226.30;105770;1283;22727;-74
2022/03/22 21:31:12;;;;;;;41.90;22.40;;;;;;;10.34;37.95;102230.14;106431;1277;25318;-76
2022/03/22 21:33:39;;;;;;;50.20;23.20;;;;;;;10.31;38.02;102223.91;107133;1276;22493;-74
2022/03/22 21:36:07;;;;;;;39.20;22.70;;;;;;;10.28;38.10;102222.27;107619;1275;25920;-75
2022/03/22 21:38:35;;;;;;;50.90;24.80;;;;;;;10.26;38.32;102221.52;107076;1277;22797;-75
2022/03/22 21:41:02;;;;;;;50.10;23.70;;;;;;;10.25;38.46;102217.97;108086;1275;22837;-74
2022/03/22 21:43:29;;;;;;;60.20;22.30;;;;;;;10.22;38.41;102217.91;108948;1271;22551;-77
2022/03/22 21:45:56;;;;;;;55.30;24.20;;;;;;;10.19;38.61;102215.57;107440;1276;24268;-74
2022/03/22 21:48:23;;;;;;;42.80;23.20;;;;;;;10.18;38.67;102213.41;107058;1276;22547;-73
2022/03/22 21:50:51;;;;;;;64.30;22.50;;;;;;;10.16;38.69;102208.10;106092;1277;24310;-77
2022/03/22 21:53:19;;;;;;;44.10;22.20;;;;;;;10.13;38.72;102205.40;106088;1277;22556;-76
2022/03/22 21:55:46;;;;;;;53.60;22.70;;;;;;;10.08;38.80;102203.71;105943;1277;25436;-77
2022/03/22 21:58:14;;;;;;;43.50;23.10;;;;;;;10.02;38.82;102203.05;105723;1277;22571;-79
2022/03/22 22:00:44;;;;;;;52.80;23.60;;;;;;;9.99;38.97;102204.22;105974;1277;22856;-80
2022/03/22 22:03:11;;;;;;;57.90;22.30;;;;;;;9.90;39.14;102200.85;105912;1275;22750;-79
2022/03/22 22:05:38;;;;;;;44.50;22.80;;;;;;;9.86;39.24;102202.52;106380;1271;25848;-78
2022/03/22 22:08:06;;;;;;;43.20;21.90;;;;;;;9.82;39.44;102199.96;106249;1271;23114;-79
2022/03/22 22:10:33;;;;;;;42.60;21.10;;;;;;;9.76;39.56;102192.44;106251;1271;24316;-80
2022/03/22 22:13:00;;;;;;;37.00;21.50;;;;;;;9.76;39.79;102197.54;106338;1270;22551;-79
2022/03/22 22:15:29;;;;;;;40.60;22.30;;;;;;;9.73;39.83;102191.65;105763;1279;25348;-78
2022/03/22 22:17:58;;;;;;;41.10;22.90;;;;;;;9.70;39.94;102190.70;105669;1279;22551;-79
2022/03/22 22:20:25;;;;;;;48.80;23.00;;;;;;;9.68;39.91;102190.66;106327;1276;23972;-78
2022/03/22 22:22:52;;;;;;;42.80;23.00;;;;;;;9.67;39.98;102187.84;105683;1278;22551;-79
2022/03/22 22:25:19;;;;;;;41.70;23.10;;;;;;;9.65;40.05;102187.60;105651;1278;23957;-81
2022/03/22 22:27:47;;;;;;;41.60;23.10;;;;;;;9.61;40.09;102186.28;105685;1276;22682;-80
2022/03/22 22:30:14;;;;;;;49.60;24.00;;;;;;;9.54;40.13;102186.81;105776;1276;22532;-82
2022/03/22 22:35:28;;;;;;;50.90;22.10;;;;;;;9.46;40.47;102186.80;106124;1274;22528;-75
2022/03/22 22:37:55;;;;;;;42.40;21.80;;;;;;;9.43;40.54;102185.14;106087;1274;24428;-81
2022/03/22 22:40:23;;;;;;;52.20;22.60;;;;;;;9.37;40.62;102181.48;106459;1271;22544;-75
2022/03/22 22:42:49;;;;;;;43.70;24.20;;;;;;;9.35;40.70;102182.84;106425;1270;24220;-76
2022/03/22 22:45:17;;;;;;;46.20;22.50;;;;;;;9.32;40.72;102176.08;106354;1271;22668;-78
2022/03/22 22:47:43;;;;;;;42.90;23.10;;;;;;;9.30;40.86;102173.39;106420;1271;23192;-77
2022/03/22 22:50:10;;;;;;;51.00;23.70;;;;;;;9.29;40.93;102167.95;106233;1274;25343;-75
2022/03/22 22:52:37;;;;;;;54.20;25.50;;;;;;;9.27;41.01;102167.87;106044;1274;24746;-75
2022/03/22 22:55:06;;;;;;;32.70;20.20;;;;;;;9.26;40.86;102164.16;106256;1274;24781;-76
2022/03/22 22:57:37;;;;;;;39.90;21.60;;;;;;;9.30;40.93;102163.02;106186;1274;22535;-80
2022/03/22 23:00:07;;;;;;;41.40;21.60;;;;;;;9.31;40.79;102160.43;106035;1274;25253;-76
2022/03/22 23:02:34;;;;;;;37.70;21.60;;;;;;;9.34;40.72;102159.61;106086;1274;25483;-76
2022/03/22 23:05:01;;;;;;;37.00;20.40;;;;;;;9.35;40.62;102161.05;106043;1274;22869;-75
2022/03/22 23:10:17;;;;;;;34.70;20.70;;;;;;;9.38;40.79;102157.42;106155;1271;22575;-75
2022/03/22 23:12:44;;;;;;;39.30;23.20;;;;;;;9.36;40.92;102154.55;106282;1271;22662;-74
2022/03/22 23:15:13;;;;;;;45.30;23.70;;;;;;;9.32;41.05;102154.45;106226;1271;22534;-74
2022/03/22 23:17:41;;;;;;;34.70;21.40;;;;;;;9.29;41.03;102151.58;106125;1270;24337;-75
2022/03/22 23:20:10;;;;;;;34.00;20.70;;;;;;;9.24;41.19;102147.59;106196;1271;22572;-77
2022/03/22 23:22:38;;;;;;;40.30;23.50;;;;;;;9.23;41.10;102145.45;106141;1271;22537;-76
2022/03/22 23:25:06;;;;;;;38.00;23.10;;;;;;;9.20;41.31;102139.58;105950;1274;23067;-76
2022/03/22 23:27:33;;;;;;;39.00;23.40;;;;;;;9.16;41.41;102139.50;106013;1271;22540;-77
2022/03/22 23:30:00;;;;;;;38.30;21.20;;;;;;;9.13;41.41;102134.66;106287;1271;23654;-81
2022/03/22 23:32:27;;;;;;;37.60;21.90;;;;;;;9.13;41.25;102134.32;105982;1272;22620;-77
2022/03/22 23:34:54;;;;;;;40.20;22.40;;;;;;;9.14;41.31;102134.88;106269;1271;22528;-77
2022/03/22 23:37:21;;;;;;;36.00;22.80;;;;;;;9.14;41.41;102135.75;106336;1271;25307;-76
2022/03/22 23:39:48;;;;;;;38.80;22.50;;;;;;;9.14;41.42;102135.20;106390;1271;24257;-75
2022/03/22 23:42:15;;;;;;;33.70;21.10;;;;;;;9.13;41.39;102133.95;106154;1274;25432;-75
2022/03/22 23:44:42;;;;;;;30.70;20.80;;;;;;;9.13;41.48;102132.19;106025;1272;22553;-78
2022/03/22 23:47:10;;;;;;;28.00;20.30;;;;;;;9.14;41.45;102132.74;106363;1271;22541;-76
2022/03/22 23:49:37;;;;;;;40.70;23.80;;;;;;;9.15;41.39;102135.23;106067;1274;22543;-76
2022/03/22 23:52:04;;;;;;;43.10;25.20;;;;;;;9.15;41.56;102138.22;106224;1271;24265;-77
2022/03/22 23:54:33;;;;;;;46.30;27.70;;;;;;;9.10;41.68;102136.17;106137;1271;24627;-75
2022/03/22 23:57:02;;;;;;;50.90;29.00;;;;;;;9.00;41.85;102136.27;105744;1279;25349;-81
2022/03/22 23:59:29;;;;;;;54.80;29.10;;;;;;;8.91;42.17;102137.27;105710;1278;24240;-79
